2022年6月27日

时间 代码 天气 温度 能见度 天花板 METAR/SPECI
2:20 下午
V
64 °F 6¼ mi+ 4.800 ft 300° 300° 1 kt METAR ETWM 271220Z 30001KT 9999 FEW008 BKN048 18/16 Q1015 BLU
1:20 下午
V
63 °F 6¼ mi+ 4.300 ft 320° 320° 3 kt METAR ETWM 271120Z 32003KT 9999 FEW007 BKN043 17/16 Q1015 BLU
12:20 下午
V
61 °F 5⅝ mi 4.200 ft 290° 290° 3 kt METAR ETWM 271020Z 29003KT 9000 -RADZ FEW010 BKN042 16/15 Q1016 BLU
11:20 上午
V
61 °F 6¼ mi+ 3.800 ft 010° 010° 2 kt METAR ETWM 270920Z 01002KT 9999 SCT006 BKN038 16/15 Q1015 BLU
10:20 上午
V
61 °F 6¼ mi+ 3.600 ft Var Var 1 kt METAR ETWM 270820Z VRB01KT 9999 -RA FEW006 BKN036 16/14 Q1014 BLU
9:20 上午
V
61 °F 6¼ mi+ 3.300 ft 090° 090° 4 kt METAR ETWM 270720Z 09004KT 9999 FEW007 BKN033 16/14 Q1015 BLU
8:20 上午
V
61 °F 6¼ mi+ 3.100 ft Var Var 3 kt METAR ETWM 270620Z VRB03KT 9999 FEW004 BKN031 16/15 Q1014 BLU
7:20 上午
M
61 °F 6¼ mi+ 1.800 ft 340° 340° 5 kt METAR ETWM 270520Z 34005KT 9999 -RA FEW004 BKN018 16/15 Q1014 WHT
6:20 上午
L
61 °F 0 mi - 350° 350° 4 kt METAR ETWM 270420Z AUTO 35004KT //// // ////// 16/16 Q1015 ///
5:20 上午
L
61 °F 0 mi - 010° 010° 2 kt METAR ETWM 270320Z AUTO 01002KT //// // ////// 16/16 Q1015 ///
4:20 上午
L
61 °F 0 mi - 030° 030° 2 kt METAR ETWM 270220Z AUTO 03002KT //// // ////// 16/16 Q1015 ///
3:20 上午
L
61 °F 0 mi - 350° 350° 3 kt METAR ETWM 270120Z AUTO 35003KT //// // ////// 16/16 Q1015 ///
2:20 上午
L
61 °F 0 mi - Var Var 2 kt METAR ETWM 270020Z AUTO VRB02KT //// // ////// 16/16 Q1015 ///
1:20 上午
L
61 °F 0 mi - 360° 360° 2 kt METAR ETWM 262320Z AUTO 36002KT //// // ////// 16/16 Q1015 ///
12:20 上午
L
63 °F 0 mi - 070° 070° 1 kt METAR ETWM 262220Z AUTO 07001KT //// // ////// 17/16 Q1016 ///

2022年6月26日

时间 代码 天气 温度 能见度 天花板 METAR/SPECI
11:20 下午
L
63 °F 0 mi - 030° 030° 1 kt METAR ETWM 262120Z AUTO 03001KT //// // ////// 17/16 Q1016 ///
10:20 下午
L
66 °F 0 mi - 070° 070° 3 kt METAR ETWM 262020Z AUTO 07003KT //// // ////// 19/14 Q1016 ///
9:20 下午
L
66 °F 0 mi - 330° 330° 2 kt METAR ETWM 261920Z AUTO 33002KT //// // ////// 19/14 Q1015 ///
8:20 下午
L
68 °F 0 mi - 320° 320° 2 kt METAR ETWM 261820Z AUTO 32002KT //// // ////// 20/14 Q1015 ///
7:20 下午
L
68 °F 0 mi - Var 000° 0 kt METAR ETWM 261720Z AUTO 00000KT //// // ////// 20/14 Q1015 ///
6:20 下午
L
72 °F 0 mi - Var Var 3 kt METAR ETWM 261620Z AUTO VRB03KT //// // ////// 22/12 Q1016 ///
5:20 下午
L
72 °F 0 mi - Var Var 3 kt METAR ETWM 261520Z AUTO VRB03KT //// // ////// 22/13 Q1016 ///
4:20 下午
L
72 °F 0 mi - Var Var 2 kt METAR ETWM 261420Z AUTO VRB02KT //// // ////// 22/13 Q1016 ///
3:20 下午
L
70 °F 0 mi - Var Var 2 kt METAR ETWM 261320Z AUTO VRB02KT //// // ////// 21/12 Q1016 ///
2:20 下午
L
72 °F 0 mi - 220° 220° 4 kt METAR ETWM 261220Z AUTO 22004KT //// // ////// 22/12 Q1016 ///
1:20 下午
L
73 °F 0 mi - 210° 210° 4 kt METAR ETWM 261120Z AUTO 21004KT //// // ////// 23/12 Q1015 ///
12:20 下午
L
72 °F 0 mi - 230° 230° 6 kt METAR ETWM 261020Z AUTO 23006KT //// // ////// 22/12 Q1015 ///
11:20 上午
L
70 °F 0 mi - 240° 240° 5 kt METAR ETWM 260920Z AUTO 24005KT //// // ////// 21/13 Q1015 ///
10:20 上午
L
66 °F 0 mi - 230° 230° 8 kt METAR ETWM 260820Z AUTO 23008KT //// // ////// 19/14 Q1015 ///
9:20 上午
L
66 °F 0 mi - 220° 220° 5 kt METAR ETWM 260720Z AUTO 22005KT //// // ////// 19/15 Q1014 ///
8:20 上午
L
66 °F 0 mi - 240° 240° 7 kt METAR ETWM 260620Z AUTO 24007KT //// // ////// 19/15 Q1013 ///
7:20 上午
L
64 °F 0 mi - 240° 240° 7 kt METAR ETWM 260520Z AUTO 24007KT //// // ////// 18/15 Q1013 ///
6:20 上午
L
64 °F 0 mi - 260° 260° 4 kt METAR ETWM 260420Z AUTO 26004KT //// // ////// 18/16 Q1012 ///
5:20 上午
L
63 °F 0 mi - Var Var 1 kt METAR ETWM 260320Z AUTO VRB01KT //// // ////// 17/16 Q1011 ///
4:20 上午
L
64 °F 0 mi - 230° 230° 3 kt METAR ETWM 260220Z AUTO 23003KT //// // ////// 18/16 Q1011 ///
3:20 上午
L
61 °F 0 mi - Var Var 1 kt METAR ETWM 260120Z AUTO VRB01KT //// // ////// 16/15 Q1011 ///
2:20 上午
L
61 °F 0 mi - 060° 060° 2 kt METAR ETWM 260020Z AUTO 06002KT //// // ////// 16/15 Q1011 ///
1:20 上午
L
63 °F 0 mi - 360° 360° 1 kt METAR ETWM 252320Z AUTO 36001KT //// // ////// 17/15 Q1011 ///
12:20 上午
L
64 °F 0 mi - 030° 030° 1 kt METAR ETWM 252220Z AUTO 03001KT //// // ////// 18/16 Q1011 ///

2022年6月25日

时间 代码 天气 温度 能见度 天花板 METAR/SPECI
11:20 下午
L
66 °F 0 mi - 030° 030° 1 kt METAR ETWM 252120Z AUTO 03001KT //// // ////// 19/16 Q1011 ///
10:20 下午
L
68 °F 0 mi - 020° 020° 2 kt METAR ETWM 252020Z AUTO 02002KT //// // ////// 20/16 Q1011 ///
9:20 下午
L
70 °F 0 mi - 030° 030° 2 kt METAR ETWM 251920Z AUTO 03002KT //// // ////// 21/16 Q1011 ///
8:20 下午
L
73 °F 0 mi - 040° 040° 2 kt METAR ETWM 251820Z AUTO 04002KT //// // ////// 23/16 Q1011 ///
7:20 下午
L
75 °F 0 mi - 360° 360° 1 kt METAR ETWM 251720Z AUTO 36001KT //// // ////// 24/14 Q1011 ///
6:20 下午
L
75 °F 0 mi - 270° 270° 2 kt METAR ETWM 251620Z AUTO 27002KT //// // ////// 24/15 Q1011 ///
5:20 下午
L
75 °F 0 mi - 290° 290° 6 kt METAR ETWM 251520Z AUTO 29006KT //// // ////// 24/15 Q1011 ///
4:20 下午
L
77 °F 0 mi - 220° 220° 8 kt METAR ETWM 251420Z AUTO 22008KT //// // ////// 25/12 Q1011 ///
较旧的数据

下载我们的应用程序

在您的手机和平板电脑上轻松访问所有航空天气。
有许多网站上没有的功能,如离线支持和个人机场列表。

Studio Eveline

Benalmádena
España

我们和第三方通过cookies跟踪您在我们网站上的上网行为。如果您继续,我们认为您同意我们的cookie政策。 了解更多